createdAt,value
2023-05-12T00:01:52.751Z,1.62
2023-05-12T00:04:19.545Z,1.44
2023-05-12T00:06:46.304Z,1.73
2023-05-12T00:09:13.116Z,1.91
2023-05-12T00:11:40.027Z,1.93
2023-05-12T00:14:06.946Z,1.55
2023-05-12T00:16:33.825Z,1.55
2023-05-12T00:19:02.093Z,1.35
2023-05-12T00:21:28.850Z,1.19
2023-05-12T00:23:55.609Z,1.21
2023-05-12T00:26:22.430Z,1.13
2023-05-12T00:28:49.216Z,1.20
2023-05-12T00:31:16.184Z,1.10
2023-05-12T00:33:42.963Z,1.04
2023-05-12T00:36:11.133Z,0.79
2023-05-12T00:38:37.868Z,0.79
2023-05-12T00:41:04.719Z,0.84
2023-05-12T00:43:31.528Z,0.87
2023-05-12T00:45:58.547Z,0.90
2023-05-12T00:48:25.682Z,1.00
2023-05-12T00:50:52.596Z,1.22
2023-05-12T00:53:20.782Z,1.08
2023-05-12T00:55:47.556Z,1.05
2023-05-12T00:58:14.604Z,1.10
2023-05-12T01:00:41.400Z,1.29
2023-05-12T01:03:08.660Z,1.22
2023-05-12T01:05:39.417Z,1.33
2023-05-12T01:08:06.327Z,1.27
2023-05-12T01:10:34.744Z,1.32
2023-05-12T01:13:01.603Z,1.28
2023-05-12T01:15:31.974Z,1.18
2023-05-12T01:18:02.022Z,1.40
2023-05-12T01:20:30.417Z,1.75
2023-05-12T01:22:58.611Z,1.59
2023-05-12T01:25:28.760Z,1.89
2023-05-12T01:27:57.417Z,1.81
2023-05-12T01:30:26.268Z,1.64
2023-05-12T01:32:53.265Z,1.55
2023-05-12T01:35:20.192Z,1.51
2023-05-12T01:37:46.941Z,1.08
2023-05-12T01:40:14.047Z,1.03
2023-05-12T01:42:42.412Z,0.64
2023-05-12T01:45:11.306Z,0.48
2023-05-12T01:47:38.118Z,1.06
2023-05-12T01:50:05.795Z,1.37
2023-05-12T01:52:32.702Z,1.48
2023-05-12T01:54:59.449Z,1.38
2023-05-12T01:57:26.200Z,1.68
2023-05-12T01:59:52.973Z,1.54
2023-05-12T02:02:21.247Z,1.38
2023-05-12T02:04:48.037Z,1.12
2023-05-12T02:07:14.872Z,1.11
2023-05-12T02:09:41.614Z,1.23
2023-05-12T02:12:08.639Z,1.54
2023-05-12T02:14:35.526Z,1.65
2023-05-12T02:17:02.280Z,1.58
2023-05-12T02:19:30.397Z,1.42
2023-05-12T02:21:57.133Z,1.35
2023-05-12T02:24:23.831Z,1.49
2023-05-12T02:26:50.593Z,1.47
2023-05-12T02:29:17.322Z,1.66
2023-05-12T02:31:44.208Z,1.67
2023-05-12T02:34:11.016Z,1.89
2023-05-12T02:36:39.148Z,2.51
2023-05-12T02:39:05.969Z,2.28
2023-05-12T02:41:32.794Z,2.10
2023-05-12T02:43:59.665Z,1.84
2023-05-12T02:46:26.406Z,1.70
2023-05-12T02:48:53.201Z,1.27
2023-05-12T02:51:19.954Z,1.01
2023-05-12T02:53:48.162Z,0.94
2023-05-12T02:56:15.022Z,0.76
2023-05-12T02:58:42.138Z,0.67
2023-05-12T03:01:11.167Z,0.78
2023-05-12T03:03:38.547Z,0.91
2023-05-12T03:06:06.334Z,0.76
2023-05-12T03:08:33.573Z,0.73
2023-05-12T03:11:01.957Z,0.79
2023-05-12T03:13:28.712Z,0.96
2023-05-12T03:15:55.436Z,0.88
2023-05-12T03:18:22.387Z,0.90
2023-05-12T03:20:49.365Z,0.84
2023-05-12T03:23:16.205Z,0.98
2023-05-12T03:25:43.002Z,0.98
2023-05-12T03:28:11.162Z,0.99
2023-05-12T03:30:37.907Z,1.00
2023-05-12T03:33:04.727Z,1.21
2023-05-12T03:35:31.560Z,1.52
2023-05-12T03:37:58.262Z,1.57
2023-05-12T03:40:25.032Z,1.64
2023-05-12T03:42:51.864Z,1.47
2023-05-12T03:45:20.247Z,1.33
2023-05-12T03:47:47.067Z,1.30
2023-05-12T03:50:13.832Z,1.31
2023-05-12T03:52:40.649Z,1.18
2023-05-12T03:55:08.286Z,1.19
2023-05-12T03:57:35.067Z,1.48
2023-05-12T04:00:02.230Z,1.21
2023-05-12T04:02:30.871Z,1.36
2023-05-12T04:04:57.709Z,1.49
2023-05-12T04:07:24.483Z,1.69
2023-05-12T04:09:51.340Z,1.59
2023-05-12T04:12:18.137Z,1.61
2023-05-12T04:14:44.874Z,1.44
2023-05-12T04:17:11.607Z,1.94
2023-05-12T04:19:39.760Z,1.98
2023-05-12T04:22:06.538Z,1.84
2023-05-12T04:24:33.256Z,2.20
2023-05-12T04:27:00.049Z,1.95
2023-05-12T04:29:26.785Z,1.83
2023-05-12T04:31:54.937Z,2.03
2023-05-12T04:34:21.832Z,2.15
2023-05-12T04:36:50.465Z,2.57
2023-05-12T04:39:18.141Z,2.62
2023-05-12T04:41:45.134Z,2.81
2023-05-12T04:44:32.244Z,3.10
2023-05-12T04:46:58.968Z,2.86
2023-05-12T04:49:25.673Z,2.78
2023-05-12T04:51:53.788Z,3.03
2023-05-12T04:54:21.476Z,2.51
2023-05-12T04:56:48.294Z,2.47
2023-05-12T04:59:15.081Z,2.52
2023-05-12T05:01:41.952Z,3.15
2023-05-12T05:04:09.153Z,3.49
2023-05-12T05:06:35.868Z,3.18
2023-05-12T05:09:04.191Z,2.58
2023-05-12T05:11:30.976Z,2.53
2023-05-12T05:13:57.772Z,2.48
2023-05-12T05:16:24.800Z,2.24
2023-05-12T05:18:51.927Z,2.07
2023-05-12T05:21:19.049Z,1.62
2023-05-12T05:23:46.095Z,1.53
2023-05-12T05:26:14.306Z,1.29
2023-05-12T05:28:41.091Z,1.26
2023-05-12T05:31:08.125Z,1.18
2023-05-12T05:33:34.940Z,1.73
2023-05-12T05:36:01.817Z,1.95
2023-05-12T05:38:28.655Z,1.83
2023-05-12T05:40:55.469Z,1.65
2023-05-12T05:43:24.185Z,1.59
2023-05-12T05:45:51.616Z,1.22
2023-05-12T05:48:18.852Z,1.02
2023-05-12T05:50:45.600Z,1.10
2023-05-12T05:53:12.407Z,1.07
2023-05-12T05:55:39.207Z,1.24
2023-05-12T05:58:06.024Z,1.09
2023-05-12T06:00:34.419Z,1.06
2023-05-12T06:03:01.337Z,1.32
2023-05-12T06:05:28.176Z,1.26
2023-05-12T06:07:55.144Z,1.48
2023-05-12T06:10:22.468Z,1.35
2023-05-12T06:12:49.517Z,1.29
2023-05-12T06:15:16.674Z,1.26
2023-05-12T06:17:47.816Z,1.42
2023-05-12T06:20:14.904Z,1.76
2023-05-12T06:22:41.749Z,1.50
2023-05-12T06:25:08.890Z,1.59
2023-05-12T06:27:35.737Z,1.22
2023-05-12T06:30:02.550Z,1.31
2023-05-12T06:32:29.450Z,1.29
2023-05-12T06:34:57.970Z,1.42
2023-05-12T06:37:24.803Z,1.53
2023-05-12T06:39:51.790Z,1.25
2023-05-12T06:42:18.616Z,1.10
2023-05-12T06:44:45.638Z,1.56
2023-05-12T06:47:12.641Z,1.51
2023-05-12T06:49:39.580Z,1.44
2023-05-12T06:52:07.834Z,1.34
2023-05-12T06:54:34.706Z,1.24
2023-05-12T06:57:01.455Z,0.80
2023-05-12T06:59:28.435Z,0.57
2023-05-12T07:01:55.269Z,0.49
2023-05-12T07:04:22.240Z,0.53
2023-05-12T07:06:49.367Z,0.38
2023-05-12T07:09:17.548Z,0.35
2023-05-12T07:11:44.450Z,0.33
2023-05-12T07:14:11.400Z,0.41
2023-05-12T07:16:40.016Z,0.44
2023-05-12T07:19:06.907Z,0.44
2023-05-12T07:21:33.883Z,0.41
2023-05-12T07:24:01.120Z,0.36
2023-05-12T07:26:29.367Z,0.40
2023-05-12T07:28:56.200Z,0.47
2023-05-12T07:31:23.016Z,0.48
2023-05-12T07:33:49.789Z,0.65
2023-05-12T07:36:16.527Z,0.62
2023-05-12T07:38:46.136Z,0.60
2023-05-12T07:41:14.163Z,0.50
2023-05-12T07:43:42.242Z,0.59
2023-05-12T07:46:09.305Z,0.52
2023-05-12T07:48:36.444Z,0.50
2023-05-12T07:51:03.173Z,0.69
2023-05-12T07:53:29.911Z,0.55
2023-05-12T07:55:58.058Z,0.66
2023-05-12T07:58:25.346Z,0.49
2023-05-12T08:00:56.286Z,0.58
2023-05-12T08:03:23.770Z,0.58
2023-05-12T08:05:50.863Z,0.65
2023-05-12T08:08:17.784Z,0.62
2023-05-12T08:10:44.865Z,0.60
2023-05-12T08:13:11.886Z,0.59
2023-05-12T08:15:39.070Z,0.51
2023-05-12T08:18:08.109Z,0.77
2023-05-12T08:20:34.913Z,0.61
2023-05-12T08:23:01.948Z,0.72
2023-05-12T08:25:28.713Z,0.61
2023-05-12T08:27:55.631Z,0.56
2023-05-12T08:30:22.382Z,0.57
2023-05-12T08:32:49.457Z,0.49
2023-05-12T08:35:18.147Z,0.60
2023-05-12T08:37:45.225Z,0.58
2023-05-12T08:40:15.878Z,0.65
2023-05-12T08:42:44.171Z,0.82
2023-05-12T08:45:11.757Z,0.76
2023-05-12T08:47:38.938Z,0.59
2023-05-12T08:50:07.713Z,0.57
2023-05-12T08:52:36.533Z,0.54
2023-05-12T08:55:04.525Z,0.55
2023-05-12T08:57:31.518Z,0.51
2023-05-12T08:59:58.664Z,0.41
2023-05-12T09:02:25.737Z,0.36
2023-05-12T09:04:53.183Z,0.28
2023-05-12T09:07:21.475Z,0.26
2023-05-12T09:09:54.835Z,0.28
2023-05-12T09:12:21.816Z,0.24
2023-05-12T09:14:56.493Z,0.22
2023-05-12T09:17:23.339Z,0.17
2023-05-12T09:19:52.313Z,0.18
2023-05-12T09:22:27.506Z,0.19
2023-05-12T09:24:59.381Z,0.19
2023-05-12T09:27:28.723Z,0.20
2023-05-12T09:29:59.546Z,0.19
2023-05-12T09:32:30.793Z,0.19
2023-05-12T09:35:01.469Z,0.20
2023-05-12T09:37:31.122Z,0.15
2023-05-12T09:40:03.153Z,0.20
2023-05-12T09:42:34.311Z,0.21
2023-05-12T09:45:02.496Z,0.29
2023-05-12T09:47:34.780Z,0.30
2023-05-12T09:50:02.079Z,0.26
2023-05-12T09:52:29.005Z,0.28
2023-05-12T09:54:55.745Z,0.25
2023-05-12T09:57:26.051Z,0.27
2023-05-12T09:59:53.490Z,0.28
2023-05-12T10:02:20.604Z,0.29
2023-05-12T10:04:50.150Z,0.29
2023-05-12T10:07:18.430Z,0.30
2023-05-12T10:09:45.671Z,0.28
2023-05-12T10:12:12.890Z,0.42
2023-05-12T10:14:41.289Z,0.30
2023-05-12T10:17:09.621Z,0.24
2023-05-12T10:19:36.903Z,0.22
2023-05-12T10:22:09.923Z,0.21
2023-05-12T10:24:37.867Z,0.44
2023-05-12T10:27:05.484Z,0.33
2023-05-12T10:29:33.178Z,0.22
2023-05-12T10:32:01.444Z,0.26
2023-05-12T10:34:30.801Z,0.23
2023-05-12T10:37:00.718Z,0.26
2023-05-12T10:39:30.922Z,0.55
2023-05-12T10:42:01.696Z,0.54
2023-05-12T10:44:28.701Z,0.48
2023-05-12T10:46:59.107Z,0.50
2023-05-12T10:49:39.954Z,0.41
2023-05-12T10:52:07.051Z,0.43
2023-05-12T10:54:39.980Z,0.46
2023-05-12T10:57:14.961Z,0.39
2023-05-12T10:59:51.969Z,0.37
2023-05-12T11:02:23.762Z,0.34
2023-05-12T11:04:55.880Z,0.30
2023-05-12T11:07:24.989Z,0.25
2023-05-12T11:09:57.461Z,0.23
2023-05-12T11:12:27.358Z,0.22
2023-05-12T11:14:54.370Z,0.21
2023-05-12T11:17:21.319Z,0.16
2023-05-12T11:19:49.548Z,0.18
2023-05-12T11:22:20.602Z,0.23
2023-05-12T11:24:48.546Z,0.31
2023-05-12T11:27:18.178Z,0.54
2023-05-12T11:29:56.271Z,0.38
2023-05-12T11:32:23.063Z,0.27
2023-05-12T11:34:50.402Z,0.19
2023-05-12T11:37:18.642Z,0.19
2023-05-12T11:39:45.445Z,0.15
2023-05-12T11:42:13.984Z,0.15
2023-05-12T11:44:47.514Z,0.13
2023-05-12T11:47:15.643Z,0.11
2023-05-12T11:49:48.635Z,0.11
2023-05-12T11:52:15.843Z,0.20
2023-05-12T11:54:49.682Z,0.20
2023-05-12T11:57:25.747Z,0.30
2023-05-12T11:59:57.257Z,0.25
2023-05-12T12:02:24.222Z,0.18
2023-05-12T12:04:51.045Z,0.18
2023-05-12T12:07:28.836Z,0.24
2023-05-12T12:09:57.311Z,0.22
2023-05-12T12:12:24.201Z,0.17
2023-05-12T12:14:51.011Z,0.15
2023-05-12T12:17:17.839Z,0.18
2023-05-12T12:19:44.796Z,0.14
2023-05-12T12:22:11.685Z,0.16
2023-05-12T12:24:38.395Z,0.17
2023-05-12T12:27:06.670Z,0.25
2023-05-12T12:29:33.766Z,0.34
2023-05-12T12:32:00.526Z,0.27
2023-05-12T12:34:27.281Z,0.24
2023-05-12T12:36:54.075Z,0.22
2023-05-12T12:39:23.994Z,0.21
2023-05-12T12:41:53.769Z,0.20
2023-05-12T12:44:23.074Z,0.15
2023-05-12T12:46:50.300Z,0.27
2023-05-12T12:49:17.182Z,0.34
2023-05-12T12:51:46.791Z,0.27
2023-05-12T12:54:14.149Z,0.31
2023-05-12T12:56:40.932Z,0.26
2023-05-12T12:59:07.667Z,0.18
2023-05-12T13:01:36.035Z,0.14
2023-05-12T13:04:02.870Z,0.16
2023-05-12T13:06:29.587Z,0.13
2023-05-12T13:08:56.710Z,0.12
2023-05-12T13:11:23.633Z,0.11
2023-05-12T13:13:50.537Z,0.10
2023-05-12T13:16:17.608Z,0.10
2023-05-12T13:18:45.922Z,0.10
2023-05-12T13:21:12.941Z,0.10
2023-05-12T13:23:39.775Z,0.15
2023-05-12T13:26:06.518Z,0.17
2023-05-12T13:28:33.629Z,0.49
2023-05-12T13:31:03.015Z,0.50
2023-05-12T13:33:30.171Z,0.38
2023-05-12T13:35:58.585Z,0.29
2023-05-12T13:38:25.446Z,0.25
2023-05-12T13:40:52.646Z,0.23
2023-05-12T13:43:19.498Z,0.23
2023-05-12T13:45:46.599Z,0.20
2023-05-12T13:48:13.498Z,0.19
2023-05-12T13:50:40.262Z,0.22
2023-05-12T13:53:08.413Z,0.16
2023-05-12T13:55:35.224Z,0.37
2023-05-12T13:58:01.978Z,0.24
2023-05-12T14:00:28.683Z,0.18
2023-05-12T14:02:55.535Z,0.15
2023-05-12T14:05:22.970Z,0.13
2023-05-12T14:07:50.242Z,0.12
2023-05-12T14:10:18.670Z,0.11
2023-05-12T14:12:45.609Z,0.10
2023-05-12T14:17:46.500Z,0.16
2023-05-12T14:20:13.417Z,0.21
2023-05-12T14:22:40.356Z,0.16
2023-05-12T14:25:10.136Z,0.15
2023-05-12T14:27:38.274Z,0.13
2023-05-12T14:30:06.375Z,0.11
2023-05-12T14:32:33.306Z,0.11
2023-05-12T14:35:00.168Z,0.10
2023-05-12T14:37:26.953Z,0.11
2023-05-12T14:39:56.359Z,0.11
2023-05-12T14:42:23.176Z,0.15
2023-05-12T14:44:51.316Z,0.13
2023-05-12T14:47:18.114Z,0.11
2023-05-12T14:49:45.781Z,0.15
2023-05-12T14:52:12.755Z,0.13
2023-05-12T14:54:39.539Z,0.16
2023-05-12T14:57:06.570Z,0.13
2023-05-12T14:59:33.359Z,0.16
2023-05-12T15:02:01.620Z,0.15
2023-05-12T15:04:28.403Z,0.13
2023-05-12T15:06:55.121Z,0.12
2023-05-12T15:09:21.960Z,0.11
2023-05-12T15:11:48.669Z,0.10
2023-05-12T15:14:15.430Z,0.14
2023-05-12T15:16:42.232Z,0.22
2023-05-12T15:19:10.568Z,0.16
2023-05-12T15:21:37.356Z,0.13
2023-05-12T15:24:04.470Z,0.16
2023-05-12T15:26:33.507Z,0.19
2023-05-12T15:29:00.916Z,0.15
2023-05-12T15:31:29.133Z,0.17
2023-05-12T15:33:56.349Z,0.18
2023-05-12T15:36:24.684Z,0.19
2023-05-12T15:38:51.445Z,0.20
2023-05-12T15:41:18.226Z,0.22
2023-05-12T15:43:45.028Z,0.21
2023-05-12T15:46:14.206Z,0.21
2023-05-12T15:48:41.458Z,0.22
2023-05-12T15:51:08.167Z,0.50
2023-05-12T15:53:36.282Z,0.45
2023-05-12T15:56:04.430Z,0.33
2023-05-12T15:58:31.835Z,0.50
2023-05-12T16:00:59.141Z,0.36
2023-05-12T16:03:26.330Z,0.57
2023-05-12T16:05:53.268Z,0.41
2023-05-12T16:08:20.150Z,0.69
2023-05-12T16:10:55.272Z,0.52
2023-05-12T16:13:22.054Z,0.63
2023-05-12T16:15:49.658Z,0.52
2023-05-12T16:18:16.578Z,0.46
2023-05-12T16:20:43.528Z,0.54
2023-05-12T16:23:10.443Z,0.46
2023-05-12T16:25:37.169Z,0.43
2023-05-12T16:28:05.384Z,0.43
2023-05-12T16:30:32.136Z,0.64
2023-05-12T16:32:59.427Z,0.51
2023-05-12T16:35:26.623Z,0.80
2023-05-12T16:37:53.457Z,0.65
2023-05-12T16:40:20.312Z,0.62
2023-05-12T16:42:47.064Z,0.52
2023-05-12T16:45:15.349Z,0.32
2023-05-12T16:47:42.175Z,0.24
2023-05-12T16:50:13.773Z,0.22
2023-05-12T16:52:43.093Z,0.26
2023-05-12T16:55:10.354Z,0.40
2023-05-12T16:57:37.098Z,0.39
2023-05-12T17:00:04.316Z,0.39
2023-05-12T17:02:32.917Z,0.35
2023-05-12T17:04:59.719Z,0.35
2023-05-12T17:07:26.596Z,0.50
2023-05-12T17:09:53.434Z,0.50
2023-05-12T17:12:22.089Z,0.55
2023-05-12T17:14:59.291Z,0.74
2023-05-12T17:17:35.326Z,0.62
2023-05-12T17:20:02.614Z,0.51
2023-05-12T17:22:29.531Z,0.50
2023-05-12T17:24:56.288Z,0.42
2023-05-12T17:27:23.151Z,0.51
2023-05-12T17:29:50.215Z,0.37
2023-05-12T17:32:16.925Z,0.34
2023-05-12T17:34:45.134Z,0.49
2023-05-12T17:37:12.968Z,0.36
2023-05-12T17:39:39.705Z,0.33
2023-05-12T17:42:07.307Z,0.26
2023-05-12T17:44:34.099Z,0.23
2023-05-12T17:47:01.031Z,0.22
2023-05-12T17:49:27.842Z,0.21
2023-05-12T17:51:56.004Z,0.26
2023-05-12T17:54:24.420Z,0.23
2023-05-12T17:56:51.240Z,0.27
2023-05-12T17:59:18.025Z,0.23
2023-05-12T18:01:44.753Z,0.17
2023-05-12T18:04:11.556Z,0.28
2023-05-12T18:06:38.331Z,0.19
2023-05-12T18:09:06.562Z,0.15
2023-05-12T18:11:33.345Z,0.13
2023-05-12T18:14:00.255Z,0.11
2023-05-12T18:16:29.516Z,0.06
2023-05-12T18:18:56.758Z,0.03
2023-05-12T18:21:23.838Z,0.04
2023-05-12T18:23:50.644Z,0.04
2023-05-12T18:26:18.826Z,0.07
2023-05-12T18:28:45.628Z,0.04
2023-05-12T18:31:16.390Z,0.02
2023-05-12T18:33:47.112Z,0.01
2023-05-12T18:36:17.182Z,0.01
2023-05-12T18:38:48.805Z,0.00
2023-05-12T18:41:28.705Z,0.00
2023-05-12T18:44:14.956Z,0.00
2023-05-12T18:46:44.004Z,0.20
2023-05-12T18:49:19.953Z,0.11
2023-05-12T18:51:54.707Z,0.06
2023-05-12T18:54:27.115Z,0.03
2023-05-12T18:57:09.282Z,0.02
2023-05-12T18:59:36.408Z,0.06
2023-05-12T19:02:11.321Z,0.08
2023-05-12T19:04:43.297Z,0.13
2023-05-12T19:09:39.304Z,0.11
2023-05-12T19:12:08.695Z,0.06
2023-05-12T19:14:35.454Z,0.04
2023-05-12T19:17:02.165Z,0.02
2023-05-12T19:19:28.990Z,0.05
2023-05-12T19:21:55.839Z,0.02
2023-05-12T19:24:25.396Z,0.06
2023-05-12T19:26:52.399Z,0.08
2023-05-12T19:29:20.966Z,0.04
2023-05-12T19:31:47.901Z,0.02
2023-05-12T19:34:17.897Z,0.01
2023-05-12T19:36:46.468Z,0.05
2023-05-12T19:39:19.856Z,0.04
2023-05-12T19:41:52.913Z,0.12
2023-05-12T19:44:35.417Z,0.26
2023-05-12T19:47:03.210Z,0.23
2023-05-12T19:49:38.343Z,0.19
2023-05-12T19:52:08.616Z,0.15
2023-05-12T19:54:46.227Z,0.13
2023-05-12T19:57:25.546Z,0.07
2023-05-12T19:59:56.237Z,0.04
2023-05-12T20:02:23.184Z,0.02
2023-05-12T20:04:50.085Z,0.01
2023-05-12T20:07:16.812Z,0.05
2023-05-12T20:09:43.600Z,0.24
2023-05-12T20:12:10.477Z,0.22
2023-05-12T20:14:37.224Z,0.16
2023-05-12T20:17:05.724Z,0.17
2023-05-12T20:19:32.938Z,0.14
2023-05-12T20:21:59.813Z,0.12
2023-05-12T20:24:26.616Z,0.11
2023-05-12T20:26:53.913Z,0.11
2023-05-12T20:29:20.883Z,0.10
2023-05-12T20:31:47.852Z,0.10
2023-05-12T20:34:16.495Z,0.10
2023-05-12T20:36:43.539Z,0.25
2023-05-12T20:39:10.686Z,0.18
2023-05-12T20:41:40.528Z,0.14
2023-05-12T20:44:07.386Z,0.12
2023-05-12T20:46:36.435Z,0.07
2023-05-12T20:49:05.312Z,0.03
2023-05-12T20:51:33.541Z,0.13
2023-05-12T20:54:00.334Z,0.07
2023-05-12T20:56:27.200Z,0.08
2023-05-12T20:58:54.111Z,0.11
2023-05-12T21:01:20.974Z,0.10
2023-05-12T21:03:48.572Z,0.10
2023-05-12T21:06:15.411Z,0.10
2023-05-12T21:08:43.621Z,0.10
2023-05-12T21:11:14.754Z,0.05
2023-05-12T21:13:41.682Z,0.03
2023-05-12T21:16:08.648Z,0.07
2023-05-12T21:18:35.611Z,0.05
2023-05-12T21:21:02.366Z,0.03
2023-05-12T21:23:29.197Z,0.02
2023-05-12T21:25:57.377Z,0.01
2023-05-12T21:28:24.113Z,0.05
2023-05-12T21:30:51.059Z,0.03
2023-05-12T21:33:17.795Z,0.01
2023-05-12T21:35:44.543Z,0.01
2023-05-12T21:38:11.331Z,0.00
2023-05-12T21:40:38.161Z,0.00
2023-05-12T21:43:06.275Z,0.00
2023-05-12T21:45:33.029Z,0.00
2023-05-12T21:47:59.792Z,0.00
2023-05-12T21:50:26.663Z,0.00
2023-05-12T21:52:53.477Z,0.12
2023-05-12T21:55:20.501Z,0.06
2023-05-12T21:57:47.249Z,0.03
2023-05-12T22:00:18.295Z,0.02
2023-05-12T22:02:45.080Z,0.01
2023-05-12T22:05:11.916Z,0.01
2023-05-12T22:07:38.759Z,0.00
2023-05-12T22:10:06.437Z,0.00
2023-05-12T22:12:33.265Z,0.00
2023-05-12T22:14:59.997Z,0.00
2023-05-12T22:17:28.260Z,0.00
2023-05-12T22:19:55.220Z,0.00
2023-05-12T22:22:22.106Z,0.00
2023-05-12T22:24:48.893Z,0.00
2023-05-12T22:27:15.637Z,0.00
2023-05-12T22:29:42.374Z,0.00
2023-05-12T22:32:09.184Z,0.00
2023-05-12T22:34:37.274Z,0.00
2023-05-12T22:37:04.144Z,0.00
2023-05-12T22:39:30.912Z,0.01
2023-05-12T22:41:57.696Z,0.00
2023-05-12T22:44:24.476Z,0.00
2023-05-12T22:46:51.320Z,0.00
2023-05-12T22:49:18.162Z,0.00
2023-05-12T22:51:46.331Z,0.00
2023-05-12T22:54:13.154Z,0.00
2023-05-12T22:56:39.880Z,0.00
2023-05-12T22:59:06.668Z,0.00
2023-05-12T23:01:33.499Z,0.00
2023-05-12T23:04:00.336Z,0.00
2023-05-12T23:06:27.155Z,0.00
2023-05-12T23:08:55.458Z,0.00
2023-05-12T23:11:22.253Z,0.00
2023-05-12T23:13:49.027Z,0.00
2023-05-12T23:16:15.915Z,0.00
2023-05-12T23:18:42.765Z,0.31
2023-05-12T23:21:09.580Z,0.26
2023-05-12T23:23:36.296Z,0.14
2023-05-12T23:26:04.445Z,0.07
2023-05-12T23:28:31.184Z,0.04
2023-05-12T23:30:59.796Z,0.14
2023-05-12T23:33:26.803Z,0.08
2023-05-12T23:35:53.871Z,0.04
2023-05-12T23:38:20.668Z,0.03
2023-05-12T23:40:47.611Z,0.02
2023-05-12T23:43:15.803Z,0.01
2023-05-12T23:45:42.680Z,0.00
2023-05-12T23:48:09.438Z,0.00
2023-05-12T23:50:36.253Z,0.00
2023-05-12T23:53:03.020Z,0.00
2023-05-12T23:55:29.864Z,0.00
2023-05-12T23:57:57.071Z,0.00
